createdAt,value
2022-12-22T00:02:19.715Z,9.50
2022-12-22T00:05:06.951Z,9.50
2022-12-22T00:07:52.808Z,9.50
2022-12-22T00:13:24.444Z,9.50
2022-12-22T00:16:09.981Z,9.50
2022-12-22T00:18:55.344Z,9.50
2022-12-22T00:24:27.468Z,9.60
2022-12-22T00:30:01.149Z,9.50
2022-12-22T00:32:52.067Z,9.60
2022-12-22T00:35:40.591Z,9.60
2022-12-22T00:38:33.527Z,9.50
2022-12-22T00:41:19.035Z,9.50
2022-12-22T00:46:52.381Z,9.60
2022-12-22T00:55:12.435Z,9.60
2022-12-22T00:57:59.945Z,9.60
2022-12-22T01:00:45.484Z,9.60
2022-12-22T01:03:30.992Z,9.60
2022-12-22T01:06:19.024Z,9.70
2022-12-22T01:11:51.767Z,9.70
2022-12-22T01:28:32.865Z,9.60
2022-12-22T01:31:51.362Z,9.60
2022-12-22T01:34:36.792Z,9.60
2022-12-22T01:37:22.196Z,9.60
2022-12-22T01:40:07.677Z,9.60
2022-12-22T01:42:53.497Z,9.60
2022-12-22T01:45:50.675Z,9.60
2022-12-22T01:48:43.618Z,9.60
2022-12-22T01:51:36.815Z,9.60
2022-12-22T01:54:22.137Z,9.50
2022-12-22T01:57:08.761Z,9.60
2022-12-22T01:59:54.319Z,9.60
2022-12-22T02:02:41.849Z,9.50
2022-12-22T02:05:29.249Z,9.60
2022-12-22T02:08:32.598Z,9.50
2022-12-22T02:11:49.810Z,9.50
2022-12-22T02:14:47.763Z,9.50
2022-12-22T02:17:46.729Z,9.50
2022-12-22T02:20:34.891Z,9.50
2022-12-22T02:23:42.879Z,9.60
2022-12-22T02:26:49.171Z,9.50
2022-12-22T02:29:47.082Z,9.50
2022-12-22T02:32:32.615Z,9.50
2022-12-22T02:38:29.014Z,9.60
2022-12-22T02:41:47.162Z,9.60
2022-12-22T02:44:34.915Z,9.60
2022-12-22T02:47:55.352Z,9.60
2022-12-22T02:50:55.725Z,9.60
2022-12-22T02:53:42.696Z,9.70
2022-12-22T02:56:29.300Z,9.60
2022-12-22T03:02:04.226Z,9.70
2022-12-22T03:10:22.130Z,9.70
2022-12-22T03:21:25.429Z,9.80
2022-12-22T03:24:10.854Z,9.80
2022-12-22T03:34:00.068Z,9.80
2022-12-22T03:44:25.365Z,9.90
2022-12-22T03:49:19.449Z,9.90
2022-12-22T03:51:50.948Z,9.80
2022-12-22T03:54:23.583Z,9.90
2022-12-22T03:56:51.403Z,9.90
2022-12-22T03:59:18.813Z,9.90
2022-12-22T04:01:48.799Z,9.90
2022-12-22T04:04:17.204Z,9.90
2022-12-22T04:06:44.709Z,9.90
2022-12-22T04:09:11.808Z,9.90
2022-12-22T04:11:57.527Z,10.00
2022-12-22T04:14:29.677Z,9.90
2022-12-22T04:17:00.086Z,10.00
2022-12-22T04:19:26.802Z,10.00
2022-12-22T04:21:54.691Z,10.10
2022-12-22T04:24:22.168Z,9.90
2022-12-22T04:26:49.695Z,10.00
2022-12-22T04:34:11.175Z,10.10
2022-12-22T04:39:05.025Z,10.10
2022-12-22T04:41:31.735Z,10.10
2022-12-22T04:53:53.973Z,10.10
2022-12-22T05:01:17.381Z,10.20
2022-12-22T05:03:44.548Z,10.20
2022-12-22T05:06:13.796Z,10.20
2022-12-22T05:11:08.057Z,10.20
2022-12-22T05:13:34.934Z,10.20
2022-12-22T05:16:10.543Z,10.10
2022-12-22T05:18:38.852Z,10.10
2022-12-22T05:21:28.933Z,10.10
2022-12-22T05:23:55.688Z,10.10
2022-12-22T05:26:22.377Z,10.10
2022-12-22T05:28:49.352Z,10.10
2022-12-22T05:31:21.817Z,10.10
2022-12-22T05:33:49.356Z,10.20
2022-12-22T05:36:16.424Z,10.20
2022-12-22T05:38:44.655Z,10.20
2022-12-22T05:41:11.466Z,10.20
2022-12-22T05:43:38.797Z,10.20
2022-12-22T05:46:08.455Z,10.10
2022-12-22T05:48:39.015Z,10.10
2022-12-22T05:51:08.329Z,10.20
2022-12-22T05:56:02.383Z,10.10
2022-12-22T06:00:58.305Z,10.20
2022-12-22T06:03:26.274Z,10.20
2022-12-22T06:05:53.766Z,10.10
2022-12-22T06:08:20.781Z,10.10
2022-12-22T06:10:47.495Z,10.10
2022-12-22T06:13:14.202Z,10.10
2022-12-22T06:15:41.196Z,10.10
2022-12-22T06:20:34.990Z,10.10
2022-12-22T06:23:01.667Z,10.10
2022-12-22T06:27:55.543Z,10.00
2022-12-22T06:30:27.387Z,10.10
2022-12-22T06:32:58.008Z,10.10
2022-12-22T06:45:43.392Z,10.10
2022-12-22T06:48:11.478Z,10.00
2022-12-22T06:50:38.181Z,10.00
2022-12-22T06:53:05.905Z,10.00
2022-12-22T06:55:32.663Z,10.00
2022-12-22T07:07:48.252Z,10.10
2022-12-22T07:10:14.988Z,10.10
2022-12-22T07:12:41.711Z,10.10
2022-12-22T07:15:09.832Z,10.10
2022-12-22T07:24:58.615Z,10.00
2022-12-22T07:29:52.423Z,10.10
2022-12-22T07:34:46.488Z,10.00
2022-12-22T07:42:26.373Z,10.00
2022-12-22T07:47:20.265Z,10.00
2022-12-22T07:50:05.684Z,10.10
2022-12-22T07:57:26.558Z,10.10
2022-12-22T07:59:53.974Z,10.20
2022-12-22T08:07:15.200Z,10.20
2022-12-22T08:09:41.887Z,10.30
2022-12-22T08:14:35.697Z,10.20
2022-12-22T08:17:02.360Z,10.30
2022-12-22T08:19:29.413Z,10.30
2022-12-22T08:21:56.088Z,10.30
2022-12-22T08:26:56.785Z,10.30
2022-12-22T08:29:38.441Z,10.40
2022-12-22T08:34:32.584Z,10.50
2022-12-22T08:37:02.128Z,10.50
2022-12-22T08:39:32.664Z,10.60
2022-12-22T08:42:01.135Z,10.60
2022-12-22T08:44:29.072Z,10.60
2022-12-22T08:46:58.649Z,10.60
2022-12-22T08:49:26.596Z,10.60
2022-12-22T08:51:54.331Z,10.50
2022-12-22T08:59:17.234Z,10.60
2022-12-22T09:01:47.899Z,10.60
2022-12-22T09:04:17.011Z,10.60
2022-12-22T09:06:44.479Z,10.70
2022-12-22T09:09:12.791Z,10.60
2022-12-22T09:11:40.416Z,10.70
2022-12-22T09:14:08.699Z,10.70
2022-12-22T09:16:36.059Z,10.70
2022-12-22T09:19:03.924Z,10.60
2022-12-22T09:21:30.867Z,10.70
2022-12-22T09:26:27.172Z,10.60
2022-12-22T09:31:24.384Z,10.60
2022-12-22T09:33:51.698Z,10.60
2022-12-22T09:36:21.451Z,10.60
2022-12-22T09:38:48.448Z,10.60
2022-12-22T09:41:20.905Z,10.60
2022-12-22T09:43:48.680Z,10.60
2022-12-22T09:46:28.379Z,10.70
2022-12-22T09:51:27.174Z,10.70
2022-12-22T09:54:00.120Z,10.70
2022-12-22T09:56:28.670Z,10.70
2022-12-22T09:58:56.308Z,10.70
2022-12-22T10:01:53.855Z,10.70
2022-12-22T10:04:41.563Z,10.70
2022-12-22T10:07:25.997Z,10.80
2022-12-22T10:09:52.709Z,10.70
2022-12-22T10:12:25.475Z,10.80
2022-12-22T10:14:53.869Z,10.80
2022-12-22T10:17:32.866Z,10.80
2022-12-22T10:20:19.261Z,10.90
2022-12-22T10:22:50.958Z,10.90
2022-12-22T10:25:52.430Z,11.00
2022-12-22T10:28:26.915Z,11.00
2022-12-22T10:31:12.634Z,11.00
2022-12-22T10:33:46.237Z,11.20
2022-12-22T10:36:16.329Z,11.30
2022-12-22T10:39:02.568Z,11.30
2022-12-22T10:41:42.141Z,11.20
2022-12-22T10:44:30.608Z,11.10
2022-12-22T10:47:16.989Z,11.00
2022-12-22T10:52:30.900Z,10.90
2022-12-22T10:55:39.310Z,10.90
2022-12-22T10:58:08.878Z,11.00
2022-12-22T11:00:37.924Z,10.90
2022-12-22T11:03:07.620Z,10.90
2022-12-22T11:05:34.383Z,10.80
2022-12-22T11:08:33.486Z,10.80
2022-12-22T11:11:06.541Z,10.80
2022-12-22T11:13:47.855Z,10.80
2022-12-22T11:16:23.378Z,10.90
2022-12-22T11:18:55.420Z,11.10
2022-12-22T11:24:12.232Z,11.20
2022-12-22T11:27:07.761Z,11.20
2022-12-22T11:29:58.719Z,11.30
2022-12-22T11:32:56.488Z,11.30
2022-12-22T11:35:46.066Z,11.40
2022-12-22T11:38:19.050Z,11.40
2022-12-22T11:40:49.997Z,11.40
2022-12-22T11:43:35.128Z,11.40
2022-12-22T11:46:31.310Z,11.40
2022-12-22T11:51:44.697Z,11.40
2022-12-22T11:54:30.366Z,11.40
2022-12-22T12:00:03.417Z,11.40
2022-12-22T12:02:38.946Z,11.20
2022-12-22T12:05:30.226Z,11.20
2022-12-22T12:08:29.451Z,11.20
2022-12-22T12:11:18.279Z,11.20
2022-12-22T12:13:48.199Z,11.10
2022-12-22T12:16:14.967Z,11.00
2022-12-22T12:18:44.532Z,10.90
2022-12-22T12:21:25.496Z,10.90
2022-12-22T12:24:16.427Z,10.90
2022-12-22T12:27:24.731Z,10.80
2022-12-22T12:33:20.969Z,10.60
2022-12-22T12:36:05.583Z,10.60
2022-12-22T12:41:43.284Z,10.50
2022-12-22T12:44:15.050Z,10.50
2022-12-22T12:46:50.807Z,10.50
2022-12-22T12:49:38.614Z,10.70
2022-12-22T12:57:00.637Z,10.90
2022-12-22T12:59:39.647Z,11.00
2022-12-22T13:02:28.402Z,11.00
2022-12-22T13:05:01.940Z,11.10
2022-12-22T13:08:10.866Z,11.10
2022-12-22T13:13:04.821Z,11.20
2022-12-22T13:15:41.303Z,11.10
2022-12-22T13:18:23.851Z,11.10
2022-12-22T13:21:34.185Z,11.00
2022-12-22T13:26:45.347Z,10.80
2022-12-22T13:29:24.410Z,10.70
2022-12-22T13:31:57.578Z,10.60
2022-12-22T13:35:20.040Z,10.60
2022-12-22T13:37:45.038Z,10.50
2022-12-22T13:40:22.102Z,10.60
2022-12-22T13:42:53.703Z,10.60
2022-12-22T13:45:39.859Z,10.70
2022-12-22T13:48:30.562Z,10.70
2022-12-22T13:51:00.583Z,10.70
2022-12-22T13:54:07.300Z,10.70
2022-12-22T13:56:34.220Z,10.70
2022-12-22T13:59:02.796Z,10.60
2022-12-22T14:01:29.619Z,10.70
2022-12-22T14:04:03.498Z,10.70
2022-12-22T14:06:35.709Z,10.60
2022-12-22T14:09:11.760Z,10.50
2022-12-22T14:14:17.424Z,10.50
2022-12-22T14:16:49.536Z,10.60
2022-12-22T14:19:21.218Z,10.70
2022-12-22T14:21:59.467Z,10.70
2022-12-22T14:24:32.051Z,10.70
2022-12-22T14:27:01.986Z,10.50
2022-12-22T14:29:31.035Z,10.40
2022-12-22T14:32:02.008Z,10.30
2022-12-22T14:34:31.140Z,10.30
2022-12-22T14:39:31.859Z,10.30
2022-12-22T14:42:01.698Z,10.20
2022-12-22T14:44:48.287Z,10.40
2022-12-22T14:47:22.985Z,10.30
2022-12-22T14:49:51.076Z,10.30
2022-12-22T14:52:29.461Z,10.30
2022-12-22T14:57:34.998Z,10.20
2022-12-22T15:00:07.519Z,10.20
2022-12-22T15:02:40.038Z,10.10
2022-12-22T15:05:25.205Z,10.10
2022-12-22T15:08:05.378Z,10.00
2022-12-22T15:10:44.191Z,10.00
2022-12-22T15:13:21.491Z,9.90
2022-12-22T15:15:50.643Z,9.90
2022-12-22T15:18:20.004Z,9.90
2022-12-22T15:20:46.697Z,9.90
2022-12-22T15:23:16.876Z,9.90
2022-12-22T15:28:11.072Z,9.90
2022-12-22T15:33:14.022Z,9.90
2022-12-22T15:35:41.800Z,10.00
2022-12-22T15:38:20.237Z,10.00
2022-12-22T15:40:47.107Z,10.00
2022-12-22T15:43:54.010Z,10.00
2022-12-22T15:46:06.312Z,10.00
2022-12-22T15:48:36.044Z,10.00
2022-12-22T15:51:04.496Z,10.10
2022-12-22T15:53:33.534Z,10.10
2022-12-22T15:56:01.008Z,10.10
2022-12-22T15:58:32.952Z,10.10
2022-12-22T16:00:59.726Z,10.10
2022-12-22T16:03:26.565Z,10.10
2022-12-22T16:08:27.432Z,10.10
2022-12-22T16:10:54.237Z,10.10
2022-12-22T16:13:25.291Z,10.10
2022-12-22T16:15:52.120Z,10.10
2022-12-22T16:18:18.991Z,10.10
2022-12-22T16:23:19.933Z,10.10
2022-12-22T16:25:46.992Z,10.20
2022-12-22T16:28:22.459Z,10.10
2022-12-22T16:33:17.464Z,10.20
2022-12-22T16:35:44.887Z,10.20
2022-12-22T16:38:18.223Z,10.20
2022-12-22T16:40:50.283Z,10.10
2022-12-22T16:46:14.209Z,10.10
2022-12-22T16:48:51.610Z,10.10
2022-12-22T16:51:23.780Z,10.20
2022-12-22T16:53:50.700Z,10.20
2022-12-22T16:56:22.573Z,10.20
2022-12-22T16:58:49.677Z,10.20
2022-12-22T17:01:39.797Z,10.20
2022-12-22T17:04:13.955Z,10.10
2022-12-22T17:06:42.164Z,10.10
2022-12-22T17:09:15.935Z,10.10
2022-12-22T17:11:45.398Z,10.10
2022-12-22T17:14:41.323Z,10.10
2022-12-22T17:17:30.920Z,10.20
2022-12-22T17:19:59.740Z,10.10
2022-12-22T17:22:31.729Z,10.10
2022-12-22T17:25:02.097Z,10.00
2022-12-22T17:27:33.546Z,10.00
2022-12-22T17:30:03.932Z,10.10
2022-12-22T17:32:30.733Z,10.00
2022-12-22T17:34:57.757Z,10.00
2022-12-22T17:37:24.574Z,10.10
2022-12-22T17:39:55.854Z,10.10
2022-12-22T17:42:24.155Z,10.00
2022-12-22T17:44:51.840Z,10.00
2022-12-22T17:47:28.533Z,10.00
2022-12-22T17:49:58.615Z,10.00
2022-12-22T17:52:27.876Z,10.00
2022-12-22T17:54:54.795Z,10.00
2022-12-22T17:57:27.645Z,10.00
2022-12-22T17:59:54.383Z,10.00
2022-12-22T18:02:22.955Z,10.00
2022-12-22T18:04:50.355Z,10.00
2022-12-22T18:07:22.784Z,10.00
2022-12-22T18:09:51.698Z,10.00
2022-12-22T18:12:24.677Z,10.00
2022-12-22T18:14:52.161Z,10.00
2022-12-22T18:17:35.481Z,10.00
2022-12-22T18:20:02.808Z,10.00
2022-12-22T18:22:30.128Z,10.00
2022-12-22T18:24:57.493Z,10.00
2022-12-22T18:27:24.469Z,10.00
2022-12-22T18:29:51.221Z,10.00
2022-12-22T18:32:26.436Z,10.00
2022-12-22T18:34:54.530Z,10.00
2022-12-22T18:37:21.300Z,10.00
2022-12-22T18:39:48.049Z,10.00
2022-12-22T18:42:20.944Z,10.00
2022-12-22T18:44:48.853Z,10.00
2022-12-22T18:47:15.829Z,10.00
2022-12-22T18:49:42.582Z,10.00
2022-12-22T18:52:23.543Z,10.00
2022-12-22T18:54:50.377Z,10.00
2022-12-22T18:57:19.571Z,10.00
2022-12-22T18:59:48.159Z,10.00
2022-12-22T19:02:27.700Z,10.10
2022-12-22T19:04:56.322Z,10.00
2022-12-22T19:07:25.400Z,10.20
2022-12-22T19:09:52.398Z,10.10
2022-12-22T19:12:23.023Z,10.10
2022-12-22T19:14:53.918Z,10.10
2022-12-22T19:17:23.727Z,10.00
2022-12-22T19:19:50.397Z,10.00
2022-12-22T19:22:17.060Z,10.00
2022-12-22T19:24:44.912Z,9.90
2022-12-22T19:27:19.158Z,9.90
2022-12-22T19:29:46.461Z,9.90
2022-12-22T19:32:29.236Z,9.90
2022-12-22T19:34:56.239Z,9.80
2022-12-22T19:37:22.938Z,9.80
2022-12-22T19:39:49.584Z,9.80
2022-12-22T19:42:21.466Z,9.80
2022-12-22T19:44:48.352Z,9.90
2022-12-22T19:47:22.137Z,9.90
2022-12-22T19:49:48.812Z,9.90
2022-12-22T19:52:15.545Z,9.90
2022-12-22T19:54:42.227Z,9.90
2022-12-22T19:57:16.831Z,9.80
2022-12-22T19:59:47.608Z,9.90
2022-12-22T20:02:34.669Z,9.90
2022-12-22T20:05:01.417Z,9.90
2022-12-22T20:07:30.053Z,9.90
2022-12-22T20:09:56.765Z,9.90
2022-12-22T20:12:38.659Z,9.80
2022-12-22T20:15:26.429Z,9.90
2022-12-22T20:17:54.668Z,9.90
2022-12-22T20:20:41.030Z,9.90
2022-12-22T20:23:20.240Z,9.90
2022-12-22T20:25:50.614Z,9.90
2022-12-22T20:28:24.406Z,9.90
2022-12-22T20:30:52.031Z,9.90
2022-12-22T20:33:20.309Z,9.90
2022-12-22T20:35:48.543Z,9.80
2022-12-22T20:38:21.493Z,9.80
2022-12-22T20:40:49.796Z,9.80
2022-12-22T20:43:19.649Z,9.80
2022-12-22T20:45:49.707Z,9.80
2022-12-22T20:48:33.635Z,9.80
2022-12-22T20:51:05.182Z,9.80
2022-12-22T20:53:32.441Z,9.80
2022-12-22T20:56:00.373Z,9.70
2022-12-22T20:58:31.690Z,9.70
2022-12-22T21:01:00.470Z,9.80
2022-12-22T21:03:27.273Z,9.80
2022-12-22T21:05:54.256Z,9.70
2022-12-22T21:08:24.052Z,9.70
2022-12-22T21:10:52.737Z,9.70
2022-12-22T21:13:20.522Z,9.70
2022-12-22T21:15:50.701Z,9.70
2022-12-22T21:18:20.460Z,9.70
2022-12-22T21:20:48.416Z,9.70
2022-12-22T21:23:16.466Z,9.70
2022-12-22T21:25:48.309Z,9.70
2022-12-22T21:28:41.053Z,9.70
2022-12-22T21:31:07.844Z,9.70
2022-12-22T21:33:34.632Z,9.70
2022-12-22T21:36:04.540Z,9.70
2022-12-22T21:38:33.026Z,9.70
2022-12-22T21:40:59.941Z,9.70
2022-12-22T21:43:26.608Z,9.70
2022-12-22T21:45:53.363Z,9.70
2022-12-22T21:48:21.178Z,9.70
2022-12-22T21:50:50.226Z,9.70
2022-12-22T21:53:22.085Z,9.70
2022-12-22T21:55:49.503Z,9.70
2022-12-22T21:58:16.461Z,9.70
2022-12-22T22:00:47.711Z,9.70
2022-12-22T22:03:15.924Z,9.70
2022-12-22T22:05:43.099Z,9.70
2022-12-22T22:08:12.053Z,9.70
2022-12-22T22:10:41.392Z,9.60
2022-12-22T22:13:10.943Z,9.70
2022-12-22T22:15:37.652Z,7.80
2022-12-22T22:18:07.192Z,9.70
2022-12-22T22:20:34.553Z,9.60
2022-12-22T22:23:01.510Z,9.60
2022-12-22T22:25:28.472Z,9.60
2022-12-22T22:27:59.644Z,9.50
2022-12-22T22:30:26.879Z,9.60
2022-12-22T22:32:55.138Z,9.60
2022-12-22T22:35:25.530Z,9.60
2022-12-22T22:37:52.306Z,9.70
2022-12-22T22:40:21.595Z,9.70
2022-12-22T22:42:48.889Z,9.60
2022-12-22T22:45:19.739Z,9.60
2022-12-22T22:47:46.503Z,9.60
2022-12-22T22:50:13.263Z,9.60
2022-12-22T22:57:34.286Z,9.60
2022-12-22T23:02:28.142Z,9.60
2022-12-22T23:12:16.363Z,9.60
2022-12-22T23:14:43.044Z,9.60
2022-12-22T23:26:58.879Z,9.60
2022-12-22T23:29:25.557Z,9.60
2022-12-22T23:34:19.516Z,9.60
2022-12-22T23:39:14.048Z,9.60
2022-12-22T23:49:02.070Z,9.60
2022-12-22T23:51:29.723Z,9.60
2022-12-22T23:53:59.857Z,9.60
2022-12-22T23:56:27.302Z,9.60
